Time;durP1;ratioP1;P1;durP2;ratioP2;P2;SDS_P1;SDS_P2;PMS_P1;PMS_P2;Temp;Humidity;BMP_temperature;BMP_pressure;BME280_temperature;BME280_humidity;BME280_pressure;Samples;Min_cycle;Max_cycle;Signal;HPM_P1;HPM_P2
2022/09/23 00:00:37;;;;;;;5.70;3.78;;;7.10;79.00;;;;;;5070800;28;20178;-63
2022/09/23 00:03:05;;;;;;;8.88;3.72;;;7.10;79.30;;;;;;5071499;28;20299;-63
2022/09/23 00:05:32;;;;;;;5.03;3.90;;;7.00;79.80;;;;;;5071598;28;20708;-63
2022/09/23 00:08:00;;;;;;;4.10;3.35;;;7.00;79.60;;;;;;5071922;28;20185;-63
2022/09/23 00:10:31;;;;;;;10.02;4.65;;;7.00;79.40;;;;;;5071216;28;20188;-63
2022/09/23 00:12:59;;;;;;;5.05;3.70;;;6.90;79.50;;;;;;5071885;28;20200;-62
2022/09/23 00:15:29;;;;;;;5.45;3.30;;;7.00;79.70;;;;;;5071808;28;20958;-62
2022/09/23 00:17:57;;;;;;;5.55;3.60;;;7.00;80.20;;;;;;5072258;28;20177;-63
2022/09/23 00:20:24;;;;;;;6.95;4.13;;;7.00;80.30;;;;;;5070872;28;20185;-63
2022/09/23 00:22:52;;;;;;;5.90;4.35;;;7.10;80.50;;;;;;5072052;28;20580;-63
2022/09/23 00:25:19;;;;;;;3.83;3.10;;;7.10;80.30;;;;;;5071397;28;20208;-62
2022/09/23 00:27:48;;;;;;;4.70;3.83;;;7.10;78.50;;;;;;5071921;28;20594;-62
2022/09/23 00:30:17;;;;;;;7.65;4.35;;;7.10;78.10;;;;;;5071429;28;20193;-64
2022/09/23 00:32:44;;;;;;;4.57;3.70;;;7.10;77.70;;;;;;5072039;28;20216;-62
2022/09/23 00:35:11;;;;;;;4.32;2.92;;;7.00;76.90;;;;;;5071944;28;20232;-62
2022/09/23 00:37:38;;;;;;;5.47;3.67;;;6.90;77.30;;;;;;5071319;28;20276;-62
2022/09/23 00:40:07;;;;;;;4.40;3.30;;;6.90;77.70;;;;;;5071789;28;20193;-62
2022/09/23 00:42:34;;;;;;;4.88;3.45;;;6.80;77.30;;;;;;5070908;28;20299;-63
2022/09/23 00:45:04;;;;;;;5.35;2.90;;;6.80;77.80;;;;;;5071902;28;20197;-63
2022/09/23 00:47:35;;;;;;;6.25;4.10;;;6.80;77.90;;;;;;5069495;28;20224;-63
2022/09/23 00:50:07;;;;;;;4.45;3.30;;;6.80;78.40;;;;;;5071457;28;20212;-63
2022/09/23 00:52:35;;;;;;;6.00;4.05;;;6.80;78.80;;;;;;5071933;28;20259;-62
2022/09/23 00:55:07;;;;;;;4.70;3.40;;;6.80;79.10;;;;;;5072210;28;20228;-63
2022/09/23 00:57:36;;;;;;;5.50;4.00;;;6.80;79.00;;;;;;5075609;28;20275;-63
2022/09/23 01:00:07;;;;;;;4.47;3.30;;;6.80;78.80;;;;;;5074976;28;20741;-62
2022/09/23 01:02:36;;;;;;;5.80;3.40;;;6.80;79.20;;;;;;5075579;28;20253;-63
2022/09/23 01:05:05;;;;;;;4.82;3.95;;;6.80;79.20;;;;;;5075167;28;20186;-62
2022/09/23 01:07:33;;;;;;;3.70;3.08;;;6.80;77.20;;;;;;5075383;28;20185;-62
2022/09/23 01:10:01;;;;;;;5.00;3.50;;;6.70;76.30;;;;;;5074527;28;20247;-62
2022/09/23 01:12:45;;;;;;;6.10;3.42;;;6.60;75.60;;;;;;5075608;28;20193;-63
2022/09/23 01:15:19;;;;;;;6.18;3.85;;;6.60;77.10;;;;;;5075005;28;20192;-62
2022/09/23 01:17:53;;;;;;;7.13;4.10;;;6.50;78.00;;;;;;5075248;28;20196;-62
2022/09/23 01:20:48;;;;;;;7.72;4.63;;;6.40;79.00;;;;;;5074384;28;20198;-62
2022/09/23 01:23:40;;;;;;;5.22;3.85;;;6.40;79.30;;;;;;5074106;28;20224;-63
2022/09/23 01:26:27;;;;;;;5.88;3.70;;;6.40;80.30;;;;;;5075188;28;20190;-62
2022/09/23 01:29:17;;;;;;;5.53;4.32;;;6.50;79.80;;;;;;5074263;28;20615;-62
2022/09/23 01:31:51;;;;;;;6.20;4.07;;;6.50;79.70;;;;;;5074772;28;20185;-63
2022/09/23 01:34:25;;;;;;;5.68;4.00;;;6.40;78.80;;;;;;5074614;28;20186;-62
2022/09/23 01:36:56;;;;;;;7.68;3.78;;;6.40;78.50;;;;;;5075006;28;20194;-63
2022/09/23 01:39:34;;;;;;;4.60;3.58;;;6.40;78.60;;;;;;5074688;28;20189;-63
2022/09/23 01:42:07;;;;;;;4.10;3.20;;;6.40;79.00;;;;;;5074190;28;20186;-62
2022/09/23 01:44:41;;;;;;;5.10;3.30;;;6.40;79.70;;;;;;5074907;28;20201;-62
2022/09/23 01:47:17;;;;;;;4.57;3.42;;;6.40;79.50;;;;;;5074636;28;20207;-63
2022/09/23 01:49:52;;;;;;;6.50;3.53;;;6.40;79.60;;;;;;5073845;28;20182;-63
2022/09/23 01:52:27;;;;;;;6.40;3.40;;;6.40;79.00;;;;;;5074376;28;20605;-62
2022/09/23 01:55:07;;;;;;;4.30;2.70;;;6.40;78.80;;;;;;5074891;28;20194;-63
2022/09/23 01:57:39;;;;;;;3.90;2.80;;;6.40;78.30;;;;;;5073734;28;20189;-62
2022/09/23 02:00:10;;;;;;;3.78;3.03;;;6.30;79.00;;;;;;5074650;28;20193;-62
2022/09/23 02:02:48;;;;;;;4.40;3.30;;;6.20;80.00;;;;;;5074389;28;20215;-62
2022/09/23 02:05:21;;;;;;;4.55;3.30;;;6.10;79.70;;;;;;5074275;28;20229;-62
2022/09/23 02:07:53;;;;;;;4.90;3.00;;;6.00;79.50;;;;;;5073121;28;20189;-62
2022/09/23 02:10:24;;;;;;;4.20;3.10;;;5.90;79.60;;;;;;5074309;28;20182;-62
2022/09/23 02:12:56;;;;;;;4.05;3.20;;;5.90;79.90;;;;;;5073891;28;20527;-62
2022/09/23 02:15:28;;;;;;;7.18;3.45;;;5.90;80.10;;;;;;5074546;28;20189;-62
2022/09/23 02:18:03;;;;;;;5.50;3.58;;;6.00;80.40;;;;;;5073469;28;20190;-62
2022/09/23 02:20:34;;;;;;;6.90;3.30;;;6.00;80.50;;;;;;5074415;28;20177;-62
2022/09/23 02:23:06;;;;;;;4.07;3.42;;;6.00;80.40;;;;;;5073985;28;20224;-62
2022/09/23 02:25:40;;;;;;;3.83;3.05;;;6.00;79.50;;;;;;5074101;28;20276;-63
2022/09/23 02:28:14;;;;;;;6.15;3.88;;;6.00;79.60;;;;;;5073405;28;20227;-62
2022/09/23 02:30:49;;;;;;;4.65;3.55;;;6.00;79.60;;;;;;5072986;28;20213;-63
2022/09/23 02:33:23;;;;;;;4.88;3.15;;;6.00;78.70;;;;;;5074176;28;20192;-62
2022/09/23 02:35:56;;;;;;;7.38;3.15;;;5.90;78.00;;;;;;5073027;28;20189;-62
2022/09/23 02:38:31;;;;;;;6.38;4.00;;;5.80;77.70;;;;;;5073833;28;20189;-63
2022/09/23 02:41:04;;;;;;;7.20;4.05;;;5.80;79.70;;;;;;5072115;28;20248;-63
2022/09/23 02:43:38;;;;;;;4.90;2.80;;;5.80;80.30;;;;;;5072924;28;20234;-62
2022/09/23 02:46:06;;;;;;;5.22;3.60;;;5.80;80.60;;;;;;5072883;28;20190;-62
2022/09/23 02:48:40;;;;;;;5.68;3.88;;;5.80;80.20;;;;;;5073439;28;20287;-63
2022/09/23 02:51:07;;;;;;;6.65;4.55;;;5.70;79.60;;;;;;5072805;28;20281;-62
2022/09/23 02:53:35;;;;;;;6.03;3.75;;;5.60;80.50;;;;;;5072671;28;20589;-63
2022/09/23 02:56:12;;;;;;;6.45;4.25;;;5.60;80.70;;;;;;5072919;28;20189;-62
2022/09/23 02:58:39;;;;;;;5.68;3.53;;;5.60;80.70;;;;;;5073532;28;20664;-62
2022/09/23 03:01:15;;;;;;;8.52;5.40;;;5.60;80.70;;;;;;5072546;28;20196;-63
2022/09/23 03:03:48;;;;;;;7.95;5.63;;;5.60;81.30;;;;;;5073186;28;20239;-63
2022/09/23 03:06:25;;;;;;;6.13;4.55;;;5.60;81.30;;;;;;5072921;28;20198;-62
2022/09/23 03:08:59;;;;;;;10.38;4.25;;;5.60;81.30;;;;;;5072200;28;20285;-64
2022/09/23 03:11:26;;;;;;;6.10;3.28;;;5.60;81.40;;;;;;5072699;28;20189;-62
2022/09/23 03:14:16;;;;;;;6.20;3.65;;;5.70;81.30;;;;;;5073004;28;20230;-62
2022/09/23 03:16:52;;;;;;;4.40;3.13;;;5.70;80.50;;;;;;5072713;28;20182;-65
2022/09/23 03:19:29;;;;;;;5.05;3.90;;;5.70;80.10;;;;;;5072965;28;20549;-62
2022/09/23 03:22:02;;;;;;;4.63;3.22;;;5.60;79.60;;;;;;5070745;28;20189;-62
2022/09/23 03:24:33;;;;;;;6.43;4.03;;;5.60;80.00;;;;;;5072295;28;20224;-62
2022/09/23 03:27:04;;;;;;;7.88;4.63;;;5.60;80.30;;;;;;5072943;28;20189;-62
2022/09/23 03:29:36;;;;;;;6.72;4.95;;;5.60;80.30;;;;;;5072253;28;20656;-63
2022/09/23 03:32:06;;;;;;;6.35;3.90;;;5.60;80.60;;;;;;5072762;28;20323;-63
2022/09/23 03:34:38;;;;;;;6.85;3.50;;;5.60;80.20;;;;;;5072225;28;20189;-63
2022/09/23 03:37:14;;;;;;;8.20;4.55;;;5.60;79.60;;;;;;5072893;28;20197;-63
2022/09/23 03:39:44;;;;;;;5.47;3.55;;;5.60;79.40;;;;;;5071694;28;20193;-63
2022/09/23 03:42:16;;;;;;;6.72;3.80;;;5.60;79.00;;;;;;5071857;28;20201;-63
2022/09/23 03:44:51;;;;;;;5.35;3.50;;;5.50;79.00;;;;;;5072200;28;20267;-62
2022/09/23 03:47:18;;;;;;;5.90;3.17;;;5.50;79.00;;;;;;5072179;28;20221;-62
2022/09/23 03:49:48;;;;;;;5.32;3.85;;;5.40;79.30;;;;;;5072159;28;20189;-63
2022/09/23 03:52:16;;;;;;;8.32;3.50;;;5.40;79.70;;;;;;5072539;28;20197;-64
2022/09/23 03:54:43;;;;;;;4.10;3.55;;;5.40;79.90;;;;;;5072265;28;20193;-63
2022/09/23 03:57:12;;;;;;;5.90;3.60;;;5.40;80.00;;;;;;5072187;28;20240;-63
2022/09/23 03:59:40;;;;;;;6.13;3.45;;;5.40;79.90;;;;;;5072440;28;20281;-62
2022/09/23 04:02:08;;;;;;;6.60;3.50;;;5.40;79.60;;;;;;5071799;28;20185;-62
2022/09/23 04:04:39;;;;;;;5.10;3.00;;;5.40;79.00;;;;;;5072414;28;20717;-63
2022/09/23 04:07:09;;;;;;;5.47;3.20;;;5.30;78.80;;;;;;5072500;28;20215;-63
2022/09/23 04:09:36;;;;;;;4.45;3.40;;;5.30;79.20;;;;;;5072301;28;20216;-63
2022/09/23 04:12:04;;;;;;;3.85;2.85;;;5.30;79.10;;;;;;5071040;28;20243;-63
2022/09/23 04:14:31;;;;;;;5.00;3.03;;;5.30;79.20;;;;;;5072288;28;20204;-63
2022/09/23 04:16:58;;;;;;;3.40;2.78;;;5.20;79.70;;;;;;5072035;28;20189;-63
2022/09/23 04:19:25;;;;;;;5.47;4.22;;;5.10;79.60;;;;;;5072376;28;20640;-62
2022/09/23 04:21:52;;;;;;;6.65;4.47;;;5.10;80.40;;;;;;5072037;28;20201;-62
2022/09/23 04:24:22;;;;;;;6.38;4.65;;;5.00;81.30;;;;;;5072106;28;20875;-63
2022/09/23 04:26:52;;;;;;;6.45;4.88;;;5.10;81.60;;;;;;5072179;28;20209;-63
2022/09/23 04:29:20;;;;;;;7.25;4.45;;;5.10;81.80;;;;;;5071988;28;20549;-62
2022/09/23 04:31:47;;;;;;;7.32;3.88;;;5.10;81.50;;;;;;5076169;28;20619;-63
2022/09/23 04:34:16;;;;;;;5.05;3.83;;;5.00;82.40;;;;;;5075923;28;20555;-62
2022/09/23 04:36:47;;;;;;;4.80;3.45;;;5.00;82.80;;;;;;5075986;28;20235;-63
2022/09/23 04:39:16;;;;;;;4.55;3.33;;;5.10;83.50;;;;;;5076023;28;20193;-64
2022/09/23 04:41:45;;;;;;;4.68;3.08;;;5.10;83.70;;;;;;5076391;28;20186;-63
2022/09/23 04:44:13;;;;;;;9.77;3.67;;;5.20;83.90;;;;;;5075711;28;20684;-63
2022/09/23 04:46:41;;;;;;;8.60;4.15;;;5.20;83.90;;;;;;5076150;28;20227;-63
2022/09/23 04:49:08;;;;;;;8.18;5.63;;;5.30;83.60;;;;;;5074848;28;20275;-63
2022/09/23 04:51:36;;;;;;;11.15;6.43;;;5.30;83.70;;;;;;5071792;28;20265;-62
2022/09/23 04:54:03;;;;;;;6.93;4.82;;;5.30;83.00;;;;;;5075768;28;20190;-63
2022/09/23 04:56:32;;;;;;;5.47;4.22;;;5.30;83.20;;;;;;5075755;28;20201;-63
2022/09/23 04:59:01;;;;;;;6.75;4.40;;;5.20;81.10;;;;;;5074750;28;20212;-65
2022/09/23 05:01:33;;;;;;;9.18;5.25;;;5.10;81.70;;;;;;5076015;28;20194;-63
2022/09/23 05:04:02;;;;;;;12.77;5.70;;;5.10;82.20;;;;;;5075330;28;20304;-62
2022/09/23 05:06:30;;;;;;;7.53;4.75;;;;;;;;;;5075393;28;20193;-63
2022/09/23 05:08:58;;;;;;;7.20;3.67;;;;;;;;;;5075592;28;20276;-63
2022/09/23 05:11:26;;;;;;;6.53;3.03;;;;;;;;;;5075200;28;20235;-63
2022/09/23 05:13:55;;;;;;;4.88;3.45;;;;;;;;;;5075578;28;20243;-63
2022/09/23 05:16:25;;;;;;;7.05;3.40;;;;;;;;;;5074700;28;20653;-63
2022/09/23 05:18:52;;;;;;;5.50;4.20;;;5.10;81.60;;;;;;5075432;28;20277;-63
2022/09/23 05:21:21;;;;;;;5.78;4.00;;;5.10;82.70;;;;;;5075277;28;20193;-63
2022/09/23 05:23:52;;;;;;;5.40;4.38;;;5.00;82.80;;;;;;5072185;28;20220;-63
2022/09/23 05:26:19;;;;;;;9.63;6.80;;;5.00;83.00;;;;;;5075444;28;20656;-62
2022/09/23 05:28:46;;;;;;;9.90;5.47;;;5.00;83.30;;;;;;5074174;28;20182;-63
2022/09/23 05:31:15;;;;;;;7.35;5.25;;;5.10;83.00;;;;;;5075069;28;20209;-63
2022/09/23 05:33:45;;;;;;;7.22;5.20;;;5.10;83.20;;;;;;5074965;28;20189;-63
2022/09/23 05:36:13;;;;;;;8.65;4.90;;;5.00;83.70;;;;;;5075398;28;20228;-64
2022/09/23 05:38:41;;;;;;;8.95;6.35;;;5.00;84.60;;;;;;5074554;28;20212;-63
2022/09/23 05:41:11;;;;;;;7.60;5.47;;;5.10;85.00;;;;;;5074894;28;20185;-63
2022/09/23 05:43:38;;;;;;;7.90;5.38;;;5.20;85.20;;;;;;5074400;28;21758;-63
2022/09/23 05:46:07;;;;;;;9.52;5.70;;;5.30;85.20;;;;;;5074298;28;20189;-63
2022/09/23 05:48:35;;;;;;;11.63;5.18;;;5.40;85.80;;;;;;5073315;28;20300;-63
2022/09/23 05:51:11;;;;;;;9.02;4.95;;;5.50;86.90;;;;;;5075145;28;20193;-63
2022/09/23 05:53:39;;;;;;;8.95;4.85;;;5.50;87.20;;;;;;5075734;28;20196;-63
2022/09/23 05:56:07;;;;;;;5.45;3.80;;;5.60;87.90;;;;;;5075293;28;20197;-63
2022/09/23 05:58:34;;;;;;;5.78;3.65;;;5.80;87.00;;;;;;5075575;28;20293;-63
2022/09/23 06:01:01;;;;;;;5.28;3.10;;;5.80;86.80;;;;;;5074705;28;20281;-63
2022/09/23 06:03:28;;;;;;;7.07;4.18;;;5.90;87.20;;;;;;5075474;28;20276;-63
2022/09/23 06:05:55;;;;;;;6.50;4.20;;;6.10;87.40;;;;;;5074562;28;20240;-63
2022/09/23 06:08:24;;;;;;;6.07;4.40;;;6.20;87.30;;;;;;5075282;28;20604;-63
2022/09/23 06:10:51;;;;;;;6.93;4.07;;;6.40;87.30;;;;;;5074960;28;20536;-64
2022/09/23 06:13:18;;;;;;;11.85;4.90;;;6.50;86.60;;;;;;5075235;28;20546;-63
2022/09/23 06:15:45;;;;;;;17.67;6.22;;;6.60;85.90;;;;;;5075260;28;20285;-63
2022/09/23 06:18:13;;;;;;;11.48;5.28;;;6.80;85.90;;;;;;5075132;28;20189;-63
2022/09/23 06:20:40;;;;;;;6.07;3.95;;;6.90;85.40;;;;;;5075146;28;20235;-63
2022/09/23 06:23:09;;;;;;;10.38;4.90;;;7.00;85.00;;;;;;5075416;28;20292;-63
2022/09/23 06:25:38;;;;;;;8.00;4.85;;;7.20;85.70;;;;;;5074852;28;20241;-63
2022/09/23 06:28:10;;;;;;;9.40;5.05;;;7.30;85.60;;;;;;5073897;28;20196;-63
2022/09/23 06:30:39;;;;;;;8.52;4.10;;;7.50;85.40;;;;;;5075210;28;20194;-63
2022/09/23 06:33:06;;;;;;;6.80;4.63;;;7.70;85.40;;;;;;5074975;28;20231;-63
2022/09/23 06:35:33;;;;;;;10.77;5.63;;;7.80;86.00;;;;;;5074883;28;20280;-63
2022/09/23 06:38:03;;;;;;;11.10;5.93;;;8.00;86.00;;;;;;5074945;28;20212;-63
2022/09/23 06:40:31;;;;;;;7.63;4.57;;;8.30;85.90;;;;;;5074557;28;20795;-63
2022/09/23 06:43:00;;;;;;;6.35;4.47;;;8.70;83.10;;;;;;5074723;28;20609;-63
2022/09/23 06:45:28;;;;;;;15.85;6.00;;;8.90;83.60;;;;;;5074438;28;20308;-63
2022/09/23 06:47:56;;;;;;;13.63;6.95;;;9.30;82.60;;;;;;5074123;28;20626;-63
2022/09/23 06:50:24;;;;;;;20.85;7.63;;;;;;;;;;5074559;28;20210;-63
2022/09/23 06:52:54;;;;;;;17.55;7.97;;;9.60;81.80;;;;;;5073823;28;20243;-64
2022/09/23 06:55:23;;;;;;;16.75;8.18;;;10.90;82.90;;;;;;5074422;28;20691;-63
2022/09/23 06:57:50;;;;;;;21.48;10.80;;;11.60;80.60;;;;;;5074100;28;20200;-63
2022/09/23 07:00:19;;;;;;;7.38;5.50;;;12.70;80.50;;;;;;5074069;28;20221;-64
2022/09/23 07:02:46;;;;;;;6.57;4.03;;;13.70;74.80;;;;;;5074120;28;20200;-64
2022/09/23 07:05:14;;;;;;;8.80;4.65;;;14.90;72.40;;;;;;5074082;28;20316;-64
2022/09/23 07:07:41;;;;;;;10.13;5.90;;;16.50;66.00;;;;;;5074082;28;20627;-65
2022/09/23 07:10:09;;;;;;;9.30;4.20;;;17.70;58.40;;;;;;5074003;28;20724;-63
2022/09/23 07:12:36;;;;;;;6.60;3.77;;;18.80;54.20;;;;;;5074137;28;20268;-64
2022/09/23 07:15:04;;;;;;;7.00;3.63;;;20.20;49.60;;;;;;5074147;28;20524;-64
2022/09/23 07:17:32;;;;;;;4.47;3.20;;;21.50;46.10;;;;;;5073999;28;20528;-64
2022/09/23 07:19:59;;;;;;;5.07;2.90;;;22.80;44.10;;;;;;5073616;28;20467;-64
2022/09/23 07:22:26;;;;;;;4.20;2.87;;;24.00;40.90;;;;;;5073792;28;20524;-64
2022/09/23 07:24:54;;;;;;;3.53;2.43;;;25.10;37.50;;;;;;5073623;28;20578;-64
2022/09/23 07:27:24;;;;;;;5.23;2.53;;;26.20;37.20;;;;;;5073411;28;20441;-64
2022/09/23 07:29:51;;;;;;;4.30;2.20;;;27.40;33.40;;;;;;5073544;28;20447;-65
2022/09/23 07:32:19;;;;;;;4.73;2.27;;;28.50;31.40;;;;;;5073631;28;20877;-64
2022/09/23 07:34:47;;;;;;;3.97;2.37;;;29.60;30.10;;;;;;5073749;28;20463;-65
2022/09/23 07:37:14;;;;;;;6.03;2.90;;;30.60;27.40;;;;;;5073504;28;20863;-66
2022/09/23 07:39:41;;;;;;;5.23;2.50;;;31.20;25.90;;;;;;5073263;28;20893;-65
2022/09/23 07:42:08;;;;;;;5.10;2.73;;;32.00;25.90;;;;;;5073431;28;20440;-65
2022/09/23 07:44:35;;;;;;;5.43;3.03;;;32.90;23.30;;;;;;5073402;28;20444;-65
2022/09/23 07:47:02;;;;;;;4.87;3.00;;;33.20;23.80;;;;;;5073206;28;20527;-65
2022/09/23 07:49:29;;;;;;;4.67;3.27;;;34.00;22.70;;;;;;5073541;28;20440;-65
2022/09/23 07:51:57;;;;;;;7.60;4.77;;;34.70;23.90;;;;;;5073340;28;20528;-65
2022/09/23 07:54:28;;;;;;;4.83;2.93;;;35.50;25.50;;;;;;5073137;28;20515;-66
2022/09/23 07:56:55;;;;;;;6.03;2.93;;;36.40;29.50;;;;;;5073127;28;20949;-69
2022/09/23 07:59:23;;;;;;;4.67;2.57;;;37.40;20.20;;;;;;5073343;28;20531;-65
2022/09/23 08:01:52;;;;;;;3.77;2.17;;;38.20;19.00;;;;;;5073372;28;20514;-65
2022/09/23 08:04:22;;;;;;;5.10;2.33;;;38.90;18.60;;;;;;5072583;28;20436;-65
2022/09/23 08:06:52;;;;;;;3.93;2.30;;;39.40;17.80;;;;;;5073013;28;20840;-62
2022/09/23 08:09:22;;;;;;;3.83;2.40;;;40.10;17.00;;;;;;5073540;28;20444;-62
2022/09/23 08:11:49;;;;;;;3.67;2.17;;;40.60;16.30;;;;;;5073059;28;20493;-63
2022/09/23 08:14:18;;;;;;;2.70;2.10;;;41.00;16.10;;;;;;5072817;28;20484;-62
2022/09/23 08:16:47;;;;;;;3.50;2.57;;;41.50;16.30;;;;;;5072796;28;20523;-63
2022/09/23 08:19:14;;;;;;;5.80;3.43;;;42.00;15.20;;;;;;5072938;28;20773;-64
2022/09/23 08:21:41;;;;;;;3.93;2.83;;;42.40;15.40;;;;;;5073058;28;20869;-65
2022/09/23 08:24:11;;;;;;;3.30;2.60;;;42.90;15.00;;;;;;5073169;28;20432;-63
2022/09/23 08:26:39;;;;;;;3.60;2.57;;;43.20;13.80;;;;;;5073167;28;20520;-62
2022/09/23 08:29:08;;;;;;;3.47;2.50;;;43.30;13.20;;;;;;5073027;28;20816;-63
2022/09/23 08:31:35;;;;;;;6.00;2.37;;;43.40;13.00;;;;;;5072994;28;20442;-63
2022/09/23 08:34:02;;;;;;;3.57;2.40;;;43.70;13.40;;;;;;5072755;28;20519;-63
2022/09/23 08:36:31;;;;;;;2.93;2.07;;;44.20;13.00;;;;;;5072875;28;20480;-64
2022/09/23 08:38:58;;;;;;;3.43;2.20;;;44.70;13.20;;;;;;5072892;28;20535;-64
2022/09/23 08:41:35;;;;;;;4.83;2.00;;;44.90;12.60;;;;;;5072901;28;20471;-63
2022/09/23 08:44:10;;;;;;;3.30;2.13;;;45.30;12.80;;;;;;5072824;28;20534;-63
2022/09/23 08:46:42;;;;;;;3.80;2.20;;;45.80;12.10;;;;;;5072868;28;20432;-68
2022/09/23 08:49:16;;;;;;;2.47;2.10;;;46.10;11.50;;;;;;5072320;28;20499;-63
2022/09/23 08:51:47;;;;;;;8.80;2.87;;;46.40;11.50;;;;;;5072506;28;20545;-65
2022/09/23 08:54:18;;;;;;;4.77;2.30;;;46.70;11.00;;;;;;5072988;28;20443;-64
2022/09/23 08:56:51;;;;;;;3.67;2.10;;;46.90;10.50;;;;;;5072738;28;20536;-64
2022/09/23 08:59:27;;;;;;;6.37;2.20;;;47.00;10.80;;;;;;5072821;28;20436;-64
2022/09/23 09:01:59;;;;;;;3.73;1.80;;;47.60;9.90;;;;;;5072415;28;20435;-64
2022/09/23 09:04:31;;;;;;;2.60;1.60;;;47.80;9.60;;;;;;5072575;28;20595;-64
2022/09/23 09:07:03;;;;;;;4.40;2.50;;;48.30;10.00;;;;;;5072181;28;20493;-64
2022/09/23 09:09:33;;;;;;;4.97;2.43;;;48.70;9.80;;;;;;5072659;28;20531;-64
2022/09/23 09:12:07;;;;;;;5.50;2.43;;;49.00;9.40;;;;;;5072420;28;21002;-64
2022/09/23 09:14:47;;;;;;;3.70;1.60;;;49.00;9.20;;;;;;5072573;28;20476;-64
2022/09/23 09:17:23;;;;;;;4.27;2.03;;;49.20;9.30;;;;;;5075561;28;20848;-64
2022/09/23 09:19:55;;;;;;;4.13;2.30;;;49.40;9.00;;;;;;5076410;28;20512;-63
2022/09/23 09:22:37;;;;;;;4.40;2.10;;;50.00;8.80;;;;;;5076221;28;20522;-64
2022/09/23 09:25:17;;;;;;;2.73;2.00;;;50.30;9.00;;;;;;5075977;28;20479;-63
2022/09/23 09:27:44;;;;;;;4.63;2.50;;;50.30;8.80;;;;;;5076065;28;20439;-64
2022/09/23 09:30:14;;;;;;;3.00;2.17;;;50.30;9.00;;;;;;5075961;28;20479;-63
2022/09/23 09:32:47;;;;;;;2.80;2.00;;;50.20;8.70;;;;;;5075848;28;20446;-63
2022/09/23 09:35:22;;;;;;;2.90;2.03;;;50.40;8.50;;;;;;5075964;28;20436;-63
2022/09/23 09:37:49;;;;;;;3.63;1.90;;;50.50;9.10;;;;;;5075991;28;20963;-63
2022/09/23 09:40:17;;;;;;;3.10;1.87;;;50.80;8.60;;;;;;5075308;28;20489;-64
2022/09/23 09:42:47;;;;;;;4.07;2.60;;;51.10;8.60;;;;;;5075943;28;20436;-64
2022/09/23 09:45:25;;;;;;;3.27;2.37;;;51.30;9.20;;;;;;5075834;28;20479;-64
2022/09/23 09:48:02;;;;;;;4.33;2.30;;;51.60;8.10;;;;;;5075372;28;20481;-63
2022/09/23 09:50:47;;;;;;;3.20;2.07;;;51.30;7.90;;;;;;5075628;28;20478;-64
2022/09/23 09:53:21;;;;;;;3.97;2.73;;;51.50;8.20;;;;;;5075661;28;20981;-64
2022/09/23 09:55:58;;;;;;;4.70;2.70;;;51.90;8.20;;;;;;5075469;28;20425;-64
2022/09/23 09:58:28;;;;;;;3.43;2.27;;;52.30;8.10;;;;;;5075396;28;20447;-64
2022/09/23 10:00:57;;;;;;;3.47;2.23;;;52.40;8.30;;;;;;5075627;28;20471;-64
2022/09/23 10:03:39;;;;;;;3.00;1.77;;;52.80;8.30;;;;;;5075586;28;20443;-64
2022/09/23 10:06:22;;;;;;;3.50;2.50;;;53.20;8.20;;;;;;5075439;28;20908;-64
2022/09/23 10:09:15;;;;;;;3.77;2.30;;;53.20;8.00;;;;;;5072213;28;20446;-64
2022/09/23 10:12:01;;;;;;;3.63;2.70;;;53.40;7.80;;;;;;5069621;28;20476;-64
2022/09/23 10:14:29;;;;;;;4.93;3.03;;;53.60;7.40;;;;;;5074147;28;20447;-63
2022/09/23 10:17:06;;;;;;;3.27;2.50;;;53.50;7.40;;;;;;5073837;28;20448;-64
2022/09/23 10:19:36;;;;;;;3.90;2.87;;;53.30;7.40;;;;;;5073746;28;20459;-65
2022/09/23 10:22:06;;;;;;;2.73;2.30;;;53.40;7.40;;;;;;5073147;28;20452;-63
2022/09/23 10:24:35;;;;;;;5.30;2.67;;;53.30;7.10;;;;;;5073053;28;20475;-64
2022/09/23 10:27:06;;;;;;;3.10;2.40;;;53.00;7.60;;;;;;5073204;28;20487;-64
2022/09/23 10:29:38;;;;;;;2.70;1.93;;;53.00;8.10;;;;;;5073253;28;20902;-64
2022/09/23 10:32:25;;;;;;;4.57;2.17;;;53.20;7.70;;;;;;5073455;28;20540;-64
2022/09/23 10:34:55;;;;;;;2.57;1.97;;;53.60;8.00;;;;;;5070911;28;20490;-64
2022/09/23 10:37:37;;;;;;;4.17;2.03;;;54.00;7.50;;;;;;5073656;28;20780;-64
2022/09/23 10:49:08;;;;;;;4.60;2.60;;;53.10;7.70;;;;;;5073199;28;20455;-64
2022/09/23 10:51:46;;;;;;;3.70;1.80;;;53.10;7.50;;;;;;5071680;28;20452;-63
2022/09/23 10:54:23;;;;;;;2.57;1.80;;;53.00;7.80;;;;;;5072619;28;20479;-63
2022/09/23 10:56:57;;;;;;;2.97;1.90;;;52.40;7.70;;;;;;5072600;28;20442;-63
2022/09/23 10:59:49;;;;;;;2.97;2.00;;;52.20;8.00;;;;;;5073067;28;20476;-63
2022/09/23 11:02:40;;;;;;;4.93;2.20;;;52.30;7.80;;;;;;5071373;28;20439;-63
2022/09/23 11:05:31;;;;;;;2.90;1.90;;;52.40;8.00;;;;;;5073149;28;20498;-63
2022/09/23 11:08:10;;;;;;;4.47;2.03;;;52.10;7.80;;;;;;5070566;28;20906;-63
2022/09/23 11:10:56;;;;;;;24.17;2.53;;;51.80;8.00;;;;;;5071946;28;20505;-63
2022/09/23 11:13:55;;;;;;;3.23;2.17;;;51.70;8.60;;;;;;5071220;28;20440;-63
2022/09/23 11:16:37;;;;;;;7.17;2.37;;;51.60;8.70;;;;;;5071826;28;20479;-63
2022/09/23 11:19:26;;;;;;;3.10;2.10;;;51.00;8.70;;;;;;5070710;28;20440;-63
2022/09/23 11:22:07;;;;;;;3.10;2.30;;;50.00;9.00;;;;;;5071850;28;20444;-63
2022/09/23 11:24:59;;;;;;;4.57;2.40;;;49.40;9.20;;;;;;5071115;28;20448;-63
2022/09/23 11:27:44;;;;;;;4.20;2.27;;;48.70;9.50;;;;;;5071670;28;20484;-63
2022/09/23 11:30:13;;;;;;;3.60;2.10;;;48.00;10.10;;;;;;5071565;28;20472;-63
2022/09/23 11:33:12;;;;;;;4.10;2.27;;;47.70;10.30;;;;;;5071229;28;20444;-63
2022/09/23 11:35:46;;;;;;;3.87;2.23;;;47.60;10.30;;;;;;5071616;28;20440;-63
2022/09/23 11:38:20;;;;;;;3.07;1.97;;;47.40;10.50;;;;;;5070982;28;20547;-63
2022/09/23 11:40:53;;;;;;;2.83;1.80;;;47.20;10.90;;;;;;5072103;28;20448;-64
2022/09/23 11:43:23;;;;;;;2.83;1.80;;;47.30;11.00;;;;;;5071750;28;20440;-63
2022/09/23 11:45:57;;;;;;;5.20;1.90;;;47.40;11.10;;;;;;5071069;28;20563;-63
2022/09/23 11:48:29;;;;;;;4.07;2.10;;;47.60;10.80;;;;;;5072209;28;20921;-63
2022/09/23 11:51:00;;;;;;;3.53;2.00;;;47.60;10.70;;;;;;5072259;28;20436;-63
2022/09/23 11:53:40;;;;;;;3.83;2.17;;;47.40;10.50;;;;;;5071815;28;20522;-63
2022/09/23 11:56:14;;;;;;;7.67;2.70;;;47.10;10.60;;;;;;5069228;28;20535;-63
2022/09/23 11:58:47;;;;;;;3.03;2.07;;;46.80;10.70;;;;;;5070465;28;20440;-65
2022/09/23 12:01:19;;;;;;;4.93;2.27;;;46.40;11.30;;;;;;5070164;28;20494;-66
2022/09/23 12:03:53;;;;;;;4.63;1.70;;;46.00;11.40;;;;;;5070924;28;20585;-63
2022/09/23 12:06:22;;;;;;;4.33;2.20;;;45.90;11.00;;;;;;5072297;28;20582;-63
2022/09/23 12:08:56;;;;;;;3.00;1.80;;;45.40;9.50;;;;;;5070488;28;20455;-63
2022/09/23 12:11:30;;;;;;;2.73;1.47;;;45.00;9.40;;;;;;5069667;28;20830;-63
2022/09/23 12:14:15;;;;;;;2.60;1.67;;;44.50;9.40;;;;;;5071632;28;20776;-63
2022/09/23 12:17:07;;;;;;;4.63;1.60;;;44.00;9.50;;;;;;5071485;28;20436;-64
2022/09/23 12:19:53;;;;;;;3.93;1.73;;;43.90;10.10;;;;;;5070750;28;20483;-63
2022/09/23 12:22:35;;;;;;;5.37;1.83;;;44.40;10.40;;;;;;5068556;28;20459;-63
2022/09/23 12:25:22;;;;;;;3.40;2.27;;;45.20;9.90;;;;;;5071316;28;20965;-63
2022/09/23 12:27:53;;;;;;;3.93;2.17;;;46.00;9.60;;;;;;5068747;28;20473;-63
2022/09/23 12:30:23;;;;;;;3.10;2.00;;;46.20;9.40;;;;;;5071867;28;20471;-63
2022/09/23 12:32:50;;;;;;;3.73;1.43;;;46.00;9.30;;;;;;5071696;28;20471;-63
2022/09/23 12:35:25;;;;;;;2.40;1.50;;;45.60;9.40;;;;;;5071961;28;20914;-63
2022/09/23 12:37:52;;;;;;;3.00;1.70;;;44.80;9.20;;;;;;5068700;28;20511;-63
2022/09/23 12:40:30;;;;;;;7.30;1.70;;;43.80;9.90;;;;;;5071924;28;20954;-64
2022/09/23 12:43:00;;;;;;;4.00;1.70;;;42.80;10.10;;;;;;5068963;28;20435;-63
2022/09/23 12:45:36;;;;;;;2.57;1.73;;;42.00;10.40;;;;;;5071363;28;20502;-63
2022/09/23 12:48:04;;;;;;;2.10;1.40;;;41.40;11.40;;;;;;5071726;28;20483;-63
2022/09/23 12:50:52;;;;;;;4.83;1.80;;;41.00;11.70;;;;;;5071988;28;20897;-62
2022/09/23 12:53:52;;;;;;;5.27;1.73;;;40.30;12.10;;;;;;5071501;28;20467;-62
2022/09/23 12:56:22;;;;;;;4.03;1.57;;;39.60;12.40;;;;;;5058392;28;20443;-63
2022/09/23 12:59:12;;;;;;;4.27;1.90;;;38.60;12.70;;;;;;5071860;28;20523;-63
2022/09/23 13:01:40;;;;;;;3.00;1.40;;;37.80;13.30;;;;;;5063596;28;20444;-62
2022/09/23 13:07:18;;;;;;;3.40;1.70;;;36.40;14.50;;;;;;5075627;28;20898;-62
2022/09/23 13:09:50;;;;;;;3.73;1.90;;;35.50;14.90;;;;;;5075457;28;20847;-63
2022/09/23 13:12:28;;;;;;;4.07;1.70;;;34.70;15.90;;;;;;5075195;28;20467;-62
2022/09/23 13:14:59;;;;;;;4.13;1.83;;;33.90;16.70;;;;;;5071666;28;20489;-63
2022/09/23 13:17:31;;;;;;;3.57;1.70;;;33.20;17.10;;;;;;5075056;28;20849;-62
2022/09/23 13:20:02;;;;;;;3.80;2.07;;;32.60;17.70;;;;;;5075029;28;20448;-62
2022/09/23 13:23:04;;;;;;;4.57;2.07;;;32.10;18.50;;;;;;5072276;28;20440;-62
2022/09/23 13:25:35;;;;;;;5.53;1.63;;;31.50;19.00;;;;;;5072314;28;20436;-65
2022/09/23 13:28:12;;;;;;;3.50;1.70;;;31.10;19.80;;;;;;5074908;28;20447;-65
2022/09/23 13:30:48;;;;;;;3.27;1.40;;;30.50;20.30;;;;;;5073583;28;20534;-64
2022/09/23 13:33:21;;;;;;;3.47;1.60;;;30.10;20.80;;;;;;5074837;28;20483;-65